Ravensdale, WA

7:38 PM PST on February 13, 2016 (GMT -0800)
McDonald Peak Trailhead | Change Station
CLOSE
Current Station
Personal Weather Station
Location: Ravensdale, WA
Elevation: 950 ft
Nearby Weather Stations

Elev 950 ft 47.36 °N, 121.89 °W | Updated 8 minutes ago

Overcast
Overcast
42.4 °F
Feels Like 42 °F
N
0.0
Wind Variable Wind from SW
Gusts 2.2 mph

Today
High -- | Low -- °F
--% Chance of Precip.
Yesterday
High -- | Low -- °F
Precip. -- in
7:16 AM 5:27 PM
Waxing Crescent, 37% visible
Pressure 30.10 in
Visibility 10.0 miles
Clouds Overcast 3500 ft
Windchill 42 °F
Dew Point 40 °F
Humidity 90%
Rainfall 0.40 in
Snow Depth 63 in , 26 in , 36 in
UV 0 out of 12
Pollen 3.00 out of 12
Ozone Good
Flu Activity Regional
METAR KRNT 140253Z 19003KT 10SM OVC035 09/07 A3009 RMK AO2 RAE42 SLP193 P0000 60003 T00890067 56026

More Conditions Fewer Conditions

Pressure 30.10 in
Visibility 10.0 miles
Clouds Overcast 3500 ft
Windchill 42 °F
Dew Point 40 °F
Humidity 90%
Rainfall 0.40 in
Snow Depth 63 in , 26 in , 36 in
UV 0 out of 12
Pollen 3.00 out of 12
Ozone Good
Flu Activity Regional
METAR KRNT 140253Z 19003KT 10SM OVC035 09/07 A3009 RMK AO2 RAE42 SLP193 P0000 60003 T00890067 56026

More Conditions Fewer Conditions

10-Day Weather Forecast

Almanac

Astronomy

Feb. 13, 2016 Rise Set
Actual Time 7:16 AM PST 5:27 PM PST
Civil Twilight 6:44 AM PST 5:59 PM PST
Nautical Twilight 6:08 AM PST 6:35 PM PST
Astronomical Twilight 5:33 AM PST 7:11 PM PST
Moon 10:04 AM PST (2/13) No Moon Set
Length of Visible Light 11h 14m
Length of Day
10h 11m
Tomorrow will be 3m 9s longer.
Waxing Crescent, 37% of the Moon is Illuminated
Today
Waxing Crescent
Feb 15
First Quarter
Feb 22
Full
Mar 1
Last Quarter
Mar 8
New

Today's Extremes

State Highs State Lows

Community

WunderPhotos

Upload Photos

1,892,738 photos uploaded!

Nearby

Air Quality

  Air Quality AQ Index Pollutant
Yesterday Good
OZONE
Current Good
OZONE
Saturday Good
PM2.5
Sunday Good
PM2.5
Monday Good
PM2.5
Tuesday Good
PM2.5

Snow Depth

Station Depth Elevation
Rex River 63 in 4000 ft
Cougar Mountain 26 in 3200 ft
Mount Gardner 36 in 3000 ft
Tinkham Creek 65 in 3070 ft
Meadows Pass 65 in 3500 ft

Earthquake Activity

City Distance Mag. Time & Date
No recent earthquake activity has been reported nearby.
Minimum magnitude displayed is 2.5.

Coastal Water Temperatures

Place Temperature
Port Townsend, WA 48.0 °F
Seattle, WA 48.9 °F
Friday Harbor, WA 48.0 °F
Tacoma, WA 48.9 °F

Nearby Weather Stations